Weather Data

Pearl Creek Farm: 8878 N Farm Road 75, Walnut Grove MO 65770

<== Previous Day (Friday 22 Aug 2008) | Next Day (Sunday 24 Aug 2008) ==>

Summary Precipitation Data For Saturday 23 August 2008

ElementValueUnits
Precipitation0"
Notes(none)
SourceSpringfield-Branson National Airport (SGF)

Summary Temperature Data For Saturday 23 August 2008

ElementValueUnits
High Temperature88 oF
Low Temperature69 oF
Average Temperature78 oF
High Humidity96 %
Low Humidity50 %
Average Humidity74 %
SourceSpringfield-Branson National Airport (SGF)

Detail Temperature Data For Saturday 23 August 2008

Date / TimeTemp (F)RH (%)Dew Pt (F)Report Date / TimeSource
2008-08-23 05:52:00 69 96 68.0 2017-12-29 19:14:24.89625 Springfield-Branson National Airport (SGF)
2008-08-23 03:52:00 69 96 68.0 2017-12-29 19:14:24.89625 Springfield-Branson National Airport (SGF)
2008-08-23 04:52:00 70 93 68.0 2017-12-29 19:14:24.89625 Springfield-Branson National Airport (SGF)
2008-08-23 07:52:00 75 84 70.0 2017-12-29 19:14:24.89625 Springfield-Branson National Airport (SGF)
2008-08-23 08:52:00 76 82 70.0 2017-12-29 19:14:24.89625 Springfield-Branson National Airport (SGF)
2008-08-23 11:52:00 85 61 70.0 2017-12-29 19:14:24.89625 Springfield-Branson National Airport (SGF)
2008-08-23 12:52:00 87 55 69.0 2017-12-29 19:14:24.89625 Springfield-Branson National Airport (SGF)
2008-08-23 13:52:00 88 50 67.0 2017-12-29 19:14:24.89625 Springfield-Branson National Airport (SGF)
2008-08-23 14:52:00 88 52 68.0 2017-12-29 19:14:24.89625 Springfield-Branson National Airport (SGF)
2008-08-23 15:52:00 88 50 67.0 2017-12-29 19:14:24.89625 Springfield-Branson National Airport (SGF)
2008-08-23 19:52:00 78 71 68.0 2017-12-29 19:14:24.89625 Springfield-Branson National Airport (SGF)
2008-08-23 23:52:00 72 84 67.0 2017-12-29 19:14:24.89625 Springfield-Branson National Airport (SGF)
2008-08-23 00:52:00 71 90 68.0 2017-12-29 19:14:24.89625 Springfield-Branson National Airport (SGF)
2008-08-23 01:52:00 70 93 68.0 2017-12-29 19:14:24.89625 Springfield-Branson National Airport (SGF)
2008-08-23 02:52:00 70 93 68.0 2017-12-29 19:14:24.89625 Springfield-Branson National Airport (SGF)
2008-08-23 06:52:00 71 94 69.0 2017-12-29 19:14:24.89625 Springfield-Branson National Airport (SGF)
2008-08-23 09:52:00 81 67 69.0 2017-12-29 19:14:24.89625 Springfield-Branson National Airport (SGF)
2008-08-23 10:52:00 84 59 68.0 2017-12-29 19:14:24.89625 Springfield-Branson National Airport (SGF)
2008-08-23 16:52:00 86 53 67.0 2017-12-29 19:14:24.89625 Springfield-Branson National Airport (SGF)
2008-08-23 17:52:00 85 57 68.0 2017-12-29 19:14:24.89625 Springfield-Branson National Airport (SGF)
2008-08-23 18:52:00 80 69 69.0 2017-12-29 19:14:24.89625 Springfield-Branson National Airport (SGF)
2008-08-23 20:52:00 77 69 66.0 2017-12-29 19:14:24.89625 Springfield-Branson National Airport (SGF)
2008-08-23 21:52:00 74 79 67.0 2017-12-29 19:14:24.89625 Springfield-Branson National Airport (SGF)
2008-08-23 22:52:00 72 84 67.0 2017-12-29 19:14:24.89625 Springfield-Branson National Airport (SGF)

A total of 24 rows are displayed.